sensor_id;sensor_type;location;lat;lon;timestamp;P1;durP1;ratioP1;P2;durP2;ratioP2
86047;SDS011;76643;42.822;23.352;2024-03-25T00:01:14;1.08;;;0.88;;
86047;SDS011;76643;42.822;23.352;2024-03-25T00:03:39;2.33;;;0.90;;
86047;SDS011;76643;42.822;23.352;2024-03-25T00:06:05;1.88;;;0.77;;
86047;SDS011;76643;42.822;23.352;2024-03-25T00:08:31;0.73;;;0.73;;
86047;SDS011;76643;42.822;23.352;2024-03-25T00:10:56;1.05;;;1.02;;
86047;SDS011;76643;42.822;23.352;2024-03-25T00:13:22;0.70;;;0.70;;
86047;SDS011;76643;42.822;23.352;2024-03-25T00:15:47;0.93;;;0.63;;
86047;SDS011;76643;42.822;23.352;2024-03-25T00:18:13;1.17;;;1.08;;
86047;SDS011;76643;42.822;23.352;2024-03-25T00:20:38;1.38;;;1.27;;
86047;SDS011;76643;42.822;23.352;2024-03-25T00:23:04;0.80;;;0.80;;
86047;SDS011;76643;42.822;23.352;2024-03-25T00:25:29;1.20;;;1.10;;
86047;SDS011;76643;42.822;23.352;2024-03-25T00:27:55;2.10;;;1.23;;
86047;SDS011;76643;42.822;23.352;2024-03-25T00:30:21;1.00;;;0.95;;
86047;SDS011;76643;42.822;23.352;2024-03-25T00:32:47;1.17;;;0.98;;
86047;SDS011;76643;42.822;23.352;2024-03-25T00:35:12;0.77;;;0.77;;
86047;SDS011;76643;42.822;23.352;2024-03-25T00:37:38;0.82;;;0.70;;
86047;SDS011;76643;42.822;23.352;2024-03-25T00:40:04;1.58;;;1.13;;
86047;SDS011;76643;42.822;23.352;2024-03-25T00:42:32;0.90;;;0.88;;
86047;SDS011;76643;42.822;23.352;2024-03-25T00:44:57;0.88;;;0.88;;
86047;SDS011;76643;42.822;23.352;2024-03-25T00:47:23;1.02;;;0.73;;
86047;SDS011;76643;42.822;23.352;2024-03-25T00:49:48;1.15;;;0.95;;
86047;SDS011;76643;42.822;23.352;2024-03-25T00:52:14;1.33;;;1.17;;
86047;SDS011;76643;42.822;23.352;2024-03-25T00:54:39;1.17;;;1.08;;
86047;SDS011;76643;42.822;23.352;2024-03-25T00:57:05;0.93;;;0.93;;
86047;SDS011;76643;42.822;23.352;2024-03-25T00:59:30;0.98;;;0.90;;
86047;SDS011;76643;42.822;23.352;2024-03-25T01:01:56;1.30;;;1.05;;
86047;SDS011;76643;42.822;23.352;2024-03-25T01:04:22;1.40;;;1.30;;
86047;SDS011;76643;42.822;23.352;2024-03-25T01:06:48;1.45;;;1.15;;
86047;SDS011;76643;42.822;23.352;2024-03-25T01:09:13;1.25;;;0.90;;
86047;SDS011;76643;42.822;23.352;2024-03-25T01:11:39;1.25;;;1.15;;
86047;SDS011;76643;42.822;23.352;2024-03-25T01:14:04;2.95;;;1.52;;
86047;SDS011;76643;42.822;23.352;2024-03-25T01:16:30;0.93;;;0.82;;
86047;SDS011;76643;42.822;23.352;2024-03-25T01:18:57;4.70;;;2.20;;
86047;SDS011;76643;42.822;23.352;2024-03-25T01:21:23;1.05;;;0.95;;
86047;SDS011;76643;42.822;23.352;2024-03-25T01:23:49;1.70;;;1.50;;
86047;SDS011;76643;42.822;23.352;2024-03-25T01:26:15;1.92;;;1.65;;
86047;SDS011;76643;42.822;23.352;2024-03-25T01:28:41;1.45;;;1.30;;
86047;SDS011;76643;42.822;23.352;2024-03-25T01:31:07;1.10;;;1.00;;
86047;SDS011;76643;42.822;23.352;2024-03-25T01:33:33;1.40;;;1.10;;
86047;SDS011;76643;42.822;23.352;2024-03-25T01:35:59;1.40;;;1.02;;
86047;SDS011;76643;42.822;23.352;2024-03-25T01:38:25;1.92;;;1.58;;
86047;SDS011;76643;42.822;23.352;2024-03-25T01:40:50;0.90;;;0.80;;
86047;SDS011;76643;42.822;23.352;2024-03-25T01:43:15;1.15;;;1.00;;
86047;SDS011;76643;42.822;23.352;2024-03-25T01:45:41;1.52;;;0.90;;
86047;SDS011;76643;42.822;23.352;2024-03-25T01:48:08;1.55;;;1.42;;
86047;SDS011;76643;42.822;23.352;2024-03-25T01:50:36;1.15;;;1.00;;
86047;SDS011;76643;42.822;23.352;2024-03-25T01:53:04;1.38;;;1.27;;
86047;SDS011;76643;42.822;23.352;2024-03-25T01:55:30;1.45;;;1.35;;
86047;SDS011;76643;42.822;23.352;2024-03-25T01:57:59;1.08;;;0.95;;
86047;SDS011;76643;42.822;23.352;2024-03-25T02:00:25;1.25;;;1.15;;
86047;SDS011;76643;42.822;23.352;2024-03-25T02:02:51;1.42;;;1.25;;
86047;SDS011;76643;42.822;23.352;2024-03-25T02:05:17;1.17;;;1.08;;
86047;SDS011;76643;42.822;23.352;2024-03-25T02:07:44;1.45;;;1.13;;
86047;SDS011;76643;42.822;23.352;2024-03-25T02:10:10;1.17;;;0.98;;
86047;SDS011;76643;42.822;23.352;2024-03-25T02:12:40;1.48;;;1.38;;
86047;SDS011;76643;42.822;23.352;2024-03-25T02:15:09;2.20;;;2.10;;
86047;SDS011;76643;42.822;23.352;2024-03-25T02:17:36;1.25;;;1.15;;
86047;SDS011;76643;42.822;23.352;2024-03-25T02:20:03;1.00;;;0.90;;
86047;SDS011;76643;42.822;23.352;2024-03-25T02:22:30;1.33;;;1.23;;
86047;SDS011;76643;42.822;23.352;2024-03-25T02:24:56;1.13;;;1.05;;
86047;SDS011;76643;42.822;23.352;2024-03-25T02:27:24;1.23;;;0.95;;
86047;SDS011;76643;42.822;23.352;2024-03-25T02:29:49;0.80;;;0.80;;
86047;SDS011;76643;42.822;23.352;2024-03-25T02:32:15;1.27;;;1.20;;
86047;SDS011;76643;42.822;23.352;2024-03-25T02:34:44;1.17;;;1.08;;
86047;SDS011;76643;42.822;23.352;2024-03-25T02:37:13;0.93;;;0.90;;
86047;SDS011;76643;42.822;23.352;2024-03-25T02:39:38;1.20;;;0.98;;
86047;SDS011;76643;42.822;23.352;2024-03-25T02:42:04;1.77;;;1.67;;
86047;SDS011;76643;42.822;23.352;2024-03-25T02:44:30;1.25;;;1.15;;
86047;SDS011;76643;42.822;23.352;2024-03-25T02:46:57;0.93;;;0.85;;
86047;SDS011;76643;42.822;23.352;2024-03-25T02:49:25;1.55;;;1.45;;
86047;SDS011;76643;42.822;23.352;2024-03-25T02:51:51;1.10;;;0.93;;
86047;SDS011;76643;42.822;23.352;2024-03-25T02:54:16;2.03;;;1.92;;
86047;SDS011;76643;42.822;23.352;2024-03-25T02:56:42;1.60;;;1.33;;
86047;SDS011;76643;42.822;23.352;2024-03-25T02:59:08;1.55;;;1.27;;
86047;SDS011;76643;42.822;23.352;2024-03-25T03:01:33;1.98;;;1.88;;
86047;SDS011;76643;42.822;23.352;2024-03-25T03:03:59;1.65;;;1.55;;
86047;SDS011;76643;42.822;23.352;2024-03-25T03:06:24;1.45;;;1.35;;
86047;SDS011;76643;42.822;23.352;2024-03-25T03:08:50;1.75;;;1.65;;
86047;SDS011;76643;42.822;23.352;2024-03-25T03:11:15;1.48;;;1.38;;
86047;SDS011;76643;42.822;23.352;2024-03-25T03:13:41;1.30;;;1.15;;
86047;SDS011;76643;42.822;23.352;2024-03-25T03:16:06;1.63;;;1.50;;
86047;SDS011;76643;42.822;23.352;2024-03-25T03:18:32;2.40;;;1.75;;
86047;SDS011;76643;42.822;23.352;2024-03-25T03:20:57;1.83;;;1.70;;
86047;SDS011;76643;42.822;23.352;2024-03-25T03:23:23;2.05;;;1.20;;
86047;SDS011;76643;42.822;23.352;2024-03-25T03:25:48;1.45;;;1.25;;
86047;SDS011;76643;42.822;23.352;2024-03-25T03:28:14;2.22;;;1.50;;
86047;SDS011;76643;42.822;23.352;2024-03-25T03:30:40;2.55;;;1.80;;
86047;SDS011;76643;42.822;23.352;2024-03-25T03:33:06;5.88;;;3.47;;
86047;SDS011;76643;42.822;23.352;2024-03-25T03:35:35;2.92;;;1.80;;
86047;SDS011;76643;42.822;23.352;2024-03-25T03:38:00;4.35;;;3.50;;
86047;SDS011;76643;42.822;23.352;2024-03-25T03:40:26;1.25;;;1.15;;
86047;SDS011;76643;42.822;23.352;2024-03-25T03:42:51;3.97;;;3.13;;
86047;SDS011;76643;42.822;23.352;2024-03-25T03:45:17;3.75;;;2.22;;
86047;SDS011;76643;42.822;23.352;2024-03-25T03:47:43;4.05;;;3.10;;
86047;SDS011;76643;42.822;23.352;2024-03-25T03:50:09;4.18;;;3.10;;
86047;SDS011;76643;42.822;23.352;2024-03-25T03:52:35;3.80;;;2.60;;
86047;SDS011;76643;42.822;23.352;2024-03-25T03:55:00;4.78;;;3.67;;
86047;SDS011;76643;42.822;23.352;2024-03-25T03:57:25;5.43;;;4.00;;
86047;SDS011;76643;42.822;23.352;2024-03-25T03:59:51;5.32;;;3.53;;
86047;SDS011;76643;42.822;23.352;2024-03-25T04:02:17;4.88;;;3.78;;
86047;SDS011;76643;42.822;23.352;2024-03-25T04:04:43;6.10;;;4.55;;
86047;SDS011;76643;42.822;23.352;2024-03-25T04:07:08;6.28;;;4.95;;
86047;SDS011;76643;42.822;23.352;2024-03-25T04:09:33;7.75;;;5.38;;
86047;SDS011;76643;42.822;23.352;2024-03-25T04:11:59;6.85;;;4.72;;
86047;SDS011;76643;42.822;23.352;2024-03-25T04:14:25;7.18;;;5.57;;
86047;SDS011;76643;42.822;23.352;2024-03-25T04:16:51;5.70;;;4.55;;
86047;SDS011;76643;42.822;23.352;2024-03-25T04:19:18;6.38;;;3.83;;
86047;SDS011;76643;42.822;23.352;2024-03-25T04:21:44;6.03;;;5.28;;
86047;SDS011;76643;42.822;23.352;2024-03-25T04:24:10;6.45;;;4.30;;
86047;SDS011;76643;42.822;23.352;2024-03-25T04:26:35;6.60;;;4.70;;
86047;SDS011;76643;42.822;23.352;2024-03-25T04:29:01;7.03;;;4.63;;
86047;SDS011;76643;42.822;23.352;2024-03-25T04:31:26;7.00;;;4.68;;
86047;SDS011;76643;42.822;23.352;2024-03-25T04:33:51;7.28;;;5.07;;
86047;SDS011;76643;42.822;23.352;2024-03-25T04:36:17;7.10;;;4.60;;
86047;SDS011;76643;42.822;23.352;2024-03-25T04:38:42;7.35;;;5.47;;
86047;SDS011;76643;42.822;23.352;2024-03-25T04:41:08;9.27;;;5.40;;
86047;SDS011;76643;42.822;23.352;2024-03-25T04:43:33;7.32;;;4.95;;
86047;SDS011;76643;42.822;23.352;2024-03-25T04:46:02;8.52;;;5.40;;
86047;SDS011;76643;42.822;23.352;2024-03-25T04:48:28;7.50;;;4.43;;
86047;SDS011;76643;42.822;23.352;2024-03-25T04:50:54;8.38;;;5.15;;
86047;SDS011;76643;42.822;23.352;2024-03-25T04:53:20;7.57;;;4.95;;
86047;SDS011;76643;42.822;23.352;2024-03-25T04:55:45;8.00;;;5.45;;
86047;SDS011;76643;42.822;23.352;2024-03-25T04:58:11;7.00;;;4.13;;
86047;SDS011;76643;42.822;23.352;2024-03-25T05:00:36;10.57;;;4.88;;
86047;SDS011;76643;42.822;23.352;2024-03-25T05:03:02;9.48;;;5.97;;
86047;SDS011;76643;42.822;23.352;2024-03-25T05:05:27;11.20;;;6.60;;
86047;SDS011;76643;42.822;23.352;2024-03-25T05:07:53;9.55;;;5.93;;
86047;SDS011;76643;42.822;23.352;2024-03-25T05:10:19;9.35;;;6.05;;
86047;SDS011;76643;42.822;23.352;2024-03-25T05:12:45;9.95;;;6.55;;
86047;SDS011;76643;42.822;23.352;2024-03-25T05:15:12;11.75;;;6.68;;
86047;SDS011;76643;42.822;23.352;2024-03-25T05:17:38;10.00;;;6.75;;
86047;SDS011;76643;42.822;23.352;2024-03-25T05:20:03;10.75;;;6.40;;
86047;SDS011;76643;42.822;23.352;2024-03-25T05:22:30;11.18;;;7.07;;
86047;SDS011;76643;42.822;23.352;2024-03-25T05:24:55;10.82;;;6.15;;
86047;SDS011;76643;42.822;23.352;2024-03-25T05:27:21;7.03;;;5.43;;
86047;SDS011;76643;42.822;23.352;2024-03-25T05:29:46;6.78;;;4.35;;
86047;SDS011;76643;42.822;23.352;2024-03-25T05:32:12;7.68;;;5.32;;
86047;SDS011;76643;42.822;23.352;2024-03-25T05:34:37;10.07;;;6.15;;
86047;SDS011;76643;42.822;23.352;2024-03-25T05:37:03;8.45;;;5.82;;
86047;SDS011;76643;42.822;23.352;2024-03-25T05:39:29;8.40;;;5.53;;
86047;SDS011;76643;42.822;23.352;2024-03-25T05:41:55;10.13;;;6.35;;
86047;SDS011;76643;42.822;23.352;2024-03-25T05:44:20;11.52;;;6.65;;
86047;SDS011;76643;42.822;23.352;2024-03-25T05:46:46;9.65;;;6.25;;
86047;SDS011;76643;42.822;23.352;2024-03-25T05:49:11;9.23;;;5.63;;
86047;SDS011;76643;42.822;23.352;2024-03-25T05:51:37;8.95;;;6.22;;
86047;SDS011;76643;42.822;23.352;2024-03-25T05:54:02;8.60;;;6.22;;
86047;SDS011;76643;42.822;23.352;2024-03-25T05:56:28;8.55;;;5.82;;
86047;SDS011;76643;42.822;23.352;2024-03-25T05:58:58;11.35;;;6.40;;
86047;SDS011;76643;42.822;23.352;2024-03-25T06:01:24;7.75;;;5.57;;
86047;SDS011;76643;42.822;23.352;2024-03-25T06:03:50;8.43;;;6.25;;
86047;SDS011;76643;42.822;23.352;2024-03-25T06:06:15;10.52;;;6.38;;
86047;SDS011;76643;42.822;23.352;2024-03-25T06:08:41;9.63;;;6.32;;
86047;SDS011;76643;42.822;23.352;2024-03-25T06:11:06;7.97;;;4.97;;
86047;SDS011;76643;42.822;23.352;2024-03-25T06:13:32;7.60;;;5.65;;
86047;SDS011;76643;42.822;23.352;2024-03-25T06:15:58;8.10;;;5.80;;
86047;SDS011;76643;42.822;23.352;2024-03-25T06:18:23;11.85;;;7.53;;
86047;SDS011;76643;42.822;23.352;2024-03-25T06:20:49;8.27;;;6.05;;
86047;SDS011;76643;42.822;23.352;2024-03-25T06:25:49;8.27;;;5.78;;
86047;SDS011;76643;42.822;23.352;2024-03-25T06:28:15;10.50;;;6.20;;
86047;SDS011;76643;42.822;23.352;2024-03-25T06:30:41;8.55;;;5.10;;
86047;SDS011;76643;42.822;23.352;2024-03-25T06:33:25;9.57;;;5.65;;
86047;SDS011;76643;42.822;23.352;2024-03-25T06:36:09;6.63;;;4.53;;
86047;SDS011;76643;42.822;23.352;2024-03-25T06:38:34;8.02;;;6.20;;
86047;SDS011;76643;42.822;23.352;2024-03-25T06:41:00;9.05;;;6.15;;
86047;SDS011;76643;42.822;23.352;2024-03-25T06:43:25;9.75;;;5.65;;
86047;SDS011;76643;42.822;23.352;2024-03-25T06:45:51;10.88;;;7.07;;
86047;SDS011;76643;42.822;23.352;2024-03-25T06:48:16;11.55;;;7.15;;
86047;SDS011;76643;42.822;23.352;2024-03-25T06:50:41;7.78;;;4.70;;
86047;SDS011;76643;42.822;23.352;2024-03-25T06:53:20;9.25;;;5.88;;
86047;SDS011;76643;42.822;23.352;2024-03-25T06:55:55;18.40;;;7.72;;
86047;SDS011;76643;42.822;23.352;2024-03-25T06:58:23;10.23;;;5.95;;
86047;SDS011;76643;42.822;23.352;2024-03-25T07:00:50;7.03;;;4.70;;
86047;SDS011;76643;42.822;23.352;2024-03-25T07:03:17;7.80;;;5.07;;
86047;SDS011;76643;42.822;23.352;2024-03-25T07:05:49;7.93;;;4.70;;
86047;SDS011;76643;42.822;23.352;2024-03-25T07:08:20;7.10;;;4.70;;
86047;SDS011;76643;42.822;23.352;2024-03-25T07:10:46;7.82;;;5.25;;
86047;SDS011;76643;42.822;23.352;2024-03-25T07:13:11;6.47;;;4.90;;
86047;SDS011;76643;42.822;23.352;2024-03-25T07:15:37;7.43;;;5.07;;
86047;SDS011;76643;42.822;23.352;2024-03-25T07:18:04;7.20;;;5.15;;
86047;SDS011;76643;42.822;23.352;2024-03-25T07:20:30;7.05;;;4.78;;
86047;SDS011;76643;42.822;23.352;2024-03-25T07:22:56;8.35;;;6.15;;
86047;SDS011;76643;42.822;23.352;2024-03-25T07:25:22;6.32;;;5.43;;
86047;SDS011;76643;42.822;23.352;2024-03-25T07:27:48;8.75;;;5.20;;
86047;SDS011;76643;42.822;23.352;2024-03-25T07:30:14;7.22;;;4.78;;
86047;SDS011;76643;42.822;23.352;2024-03-25T07:32:39;6.20;;;4.85;;
86047;SDS011;76643;42.822;23.352;2024-03-25T07:35:05;5.90;;;4.28;;
86047;SDS011;76643;42.822;23.352;2024-03-25T07:37:33;5.72;;;4.43;;
86047;SDS011;76643;42.822;23.352;2024-03-25T07:39:58;5.78;;;4.55;;
86047;SDS011;76643;42.822;23.352;2024-03-25T07:42:24;8.05;;;5.65;;
86047;SDS011;76643;42.822;23.352;2024-03-25T07:44:50;6.20;;;4.70;;
86047;SDS011;76643;42.822;23.352;2024-03-25T07:47:15;8.75;;;5.35;;
86047;SDS011;76643;42.822;23.352;2024-03-25T07:49:41;7.00;;;4.90;;
86047;SDS011;76643;42.822;23.352;2024-03-25T07:52:06;6.78;;;4.95;;
86047;SDS011;76643;42.822;23.352;2024-03-25T07:54:32;9.27;;;5.43;;
86047;SDS011;76643;42.822;23.352;2024-03-25T07:56:57;8.23;;;5.65;;
86047;SDS011;76643;42.822;23.352;2024-03-25T07:59:23;7.60;;;5.32;;
86047;SDS011;76643;42.822;23.352;2024-03-25T08:01:49;6.47;;;4.80;;
86047;SDS011;76643;42.822;23.352;2024-03-25T08:04:14;7.63;;;5.93;;
86047;SDS011;76643;42.822;23.352;2024-03-25T08:06:40;6.72;;;4.38;;
86047;SDS011;76643;42.822;23.352;2024-03-25T08:09:06;6.45;;;4.65;;
86047;SDS011;76643;42.822;23.352;2024-03-25T08:11:32;7.70;;;5.28;;
86047;SDS011;76643;42.822;23.352;2024-03-25T08:13:58;8.48;;;5.75;;
86047;SDS011;76643;42.822;23.352;2024-03-25T08:16:23;8.38;;;5.03;;
86047;SDS011;76643;42.822;23.352;2024-03-25T08:18:49;6.97;;;5.07;;
86047;SDS011;76643;42.822;23.352;2024-03-25T08:21:15;7.05;;;4.95;;
86047;SDS011;76643;42.822;23.352;2024-03-25T08:23:41;8.70;;;6.25;;
86047;SDS011;76643;42.822;23.352;2024-03-25T08:26:06;8.70;;;6.60;;
86047;SDS011;76643;42.822;23.352;2024-03-25T08:28:33;7.13;;;4.72;;
86047;SDS011;76643;42.822;23.352;2024-03-25T08:30:59;6.75;;;4.78;;
86047;SDS011;76643;42.822;23.352;2024-03-25T08:33:24;6.35;;;5.50;;
86047;SDS011;76643;42.822;23.352;2024-03-25T08:35:50;6.15;;;5.03;;
86047;SDS011;76643;42.822;23.352;2024-03-25T08:38:15;6.65;;;5.10;;
86047;SDS011;76643;42.822;23.352;2024-03-25T08:40:41;7.50;;;4.90;;
86047;SDS011;76643;42.822;23.352;2024-03-25T08:43:06;6.80;;;5.00;;
86047;SDS011;76643;42.822;23.352;2024-03-25T08:45:32;8.02;;;5.50;;
86047;SDS011;76643;42.822;23.352;2024-03-25T08:47:57;6.43;;;4.82;;
86047;SDS011;76643;42.822;23.352;2024-03-25T08:50:23;6.28;;;5.30;;
86047;SDS011;76643;42.822;23.352;2024-03-25T08:52:48;7.20;;;5.03;;
86047;SDS011;76643;42.822;23.352;2024-03-25T08:55:14;8.40;;;6.05;;
86047;SDS011;76643;42.822;23.352;2024-03-25T08:57:40;9.02;;;5.05;;
86047;SDS011;76643;42.822;23.352;2024-03-25T09:00:05;8.52;;;5.10;;
86047;SDS011;76643;42.822;23.352;2024-03-25T09:02:35;6.88;;;4.30;;
86047;SDS011;76643;42.822;23.352;2024-03-25T09:05:03;7.55;;;5.65;;
86047;SDS011;76643;42.822;23.352;2024-03-25T09:07:32;6.95;;;5.55;;
86047;SDS011;76643;42.822;23.352;2024-03-25T09:09:58;8.90;;;6.05;;
86047;SDS011;76643;42.822;23.352;2024-03-25T09:12:41;6.13;;;4.75;;
86047;SDS011;76643;42.822;23.352;2024-03-25T09:15:07;7.43;;;5.03;;
86047;SDS011;76643;42.822;23.352;2024-03-25T09:17:34;5.63;;;4.90;;
86047;SDS011;76643;42.822;23.352;2024-03-25T09:20:00;6.85;;;5.18;;
86047;SDS011;76643;42.822;23.352;2024-03-25T09:22:26;7.78;;;5.43;;
86047;SDS011;76643;42.822;23.352;2024-03-25T09:24:51;7.38;;;4.32;;
86047;SDS011;76643;42.822;23.352;2024-03-25T09:27:18;7.10;;;5.47;;
86047;SDS011;76643;42.822;23.352;2024-03-25T09:29:43;8.50;;;5.43;;
86047;SDS011;76643;42.822;23.352;2024-03-25T09:32:08;7.20;;;5.00;;
86047;SDS011;76643;42.822;23.352;2024-03-25T09:34:34;7.38;;;4.75;;
86047;SDS011;76643;42.822;23.352;2024-03-25T09:36:59;8.40;;;6.85;;
86047;SDS011;76643;42.822;23.352;2024-03-25T09:39:25;7.32;;;6.20;;
86047;SDS011;76643;42.822;23.352;2024-03-25T09:41:50;7.07;;;5.43;;
86047;SDS011;76643;42.822;23.352;2024-03-25T09:44:22;7.72;;;6.28;;
86047;SDS011;76643;42.822;23.352;2024-03-25T09:46:50;7.00;;;5.25;;
86047;SDS011;76643;42.822;23.352;2024-03-25T09:49:16;6.63;;;5.63;;
86047;SDS011;76643;42.822;23.352;2024-03-25T09:51:42;7.22;;;6.05;;
86047;SDS011;76643;42.822;23.352;2024-03-25T09:54:08;7.03;;;5.45;;
86047;SDS011;76643;42.822;23.352;2024-03-25T09:56:34;6.22;;;5.13;;
86047;SDS011;76643;42.822;23.352;2024-03-25T09:59:00;6.53;;;4.88;;
86047;SDS011;76643;42.822;23.352;2024-03-25T10:01:26;10.35;;;5.70;;
86047;SDS011;76643;42.822;23.352;2024-03-25T10:03:51;5.13;;;4.57;;
86047;SDS011;76643;42.822;23.352;2024-03-25T10:06:17;7.03;;;5.05;;
86047;SDS011;76643;42.822;23.352;2024-03-25T10:08:42;6.93;;;5.60;;
86047;SDS011;76643;42.822;23.352;2024-03-25T10:11:10;5.97;;;4.70;;
86047;SDS011;76643;42.822;23.352;2024-03-25T10:13:35;10.27;;;7.13;;
86047;SDS011;76643;42.822;23.352;2024-03-25T10:16:02;6.55;;;4.97;;
86047;SDS011;76643;42.822;23.352;2024-03-25T10:18:28;7.65;;;5.57;;
86047;SDS011;76643;42.822;23.352;2024-03-25T10:20:54;5.03;;;3.75;;
86047;SDS011;76643;42.822;23.352;2024-03-25T10:23:22;4.90;;;3.85;;
86047;SDS011;76643;42.822;23.352;2024-03-25T10:25:51;4.93;;;4.25;;
86047;SDS011;76643;42.822;23.352;2024-03-25T10:28:17;5.53;;;4.82;;
86047;SDS011;76643;42.822;23.352;2024-03-25T10:30:43;6.68;;;4.63;;
86047;SDS011;76643;42.822;23.352;2024-03-25T10:33:08;5.38;;;3.88;;
86047;SDS011;76643;42.822;23.352;2024-03-25T10:35:34;4.32;;;3.22;;
86047;SDS011;76643;42.822;23.352;2024-03-25T10:38:02;5.25;;;3.63;;
86047;SDS011;76643;42.822;23.352;2024-03-25T10:40:33;4.40;;;3.25;;
86047;SDS011;76643;42.822;23.352;2024-03-25T10:43:04;4.43;;;3.78;;
86047;SDS011;76643;42.822;23.352;2024-03-25T10:45:43;4.28;;;2.47;;
86047;SDS011;76643;42.822;23.352;2024-03-25T10:48:17;3.90;;;3.35;;
86047;SDS011;76643;42.822;23.352;2024-03-25T10:50:46;6.63;;;3.92;;
86047;SDS011;76643;42.822;23.352;2024-03-25T10:53:14;3.92;;;3.50;;
86047;SDS011;76643;42.822;23.352;2024-03-25T10:55:42;4.03;;;2.72;;
86047;SDS011;76643;42.822;23.352;2024-03-25T10:58:09;4.30;;;3.78;;
86047;SDS011;76643;42.822;23.352;2024-03-25T11:00:36;13.05;;;6.20;;
86047;SDS011;76643;42.822;23.352;2024-03-25T11:03:02;5.82;;;3.67;;
86047;SDS011;76643;42.822;23.352;2024-03-25T11:05:28;4.38;;;2.78;;
86047;SDS011;76643;42.822;23.352;2024-03-25T11:07:54;3.58;;;2.75;;
86047;SDS011;76643;42.822;23.352;2024-03-25T11:10:19;6.22;;;4.07;;
86047;SDS011;76643;42.822;23.352;2024-03-25T11:12:54;3.88;;;3.15;;
86047;SDS011;76643;42.822;23.352;2024-03-25T11:15:19;3.75;;;2.90;;
86047;SDS011;76643;42.822;23.352;2024-03-25T11:17:49;3.92;;;2.50;;
86047;SDS011;76643;42.822;23.352;2024-03-25T11:20:16;4.90;;;3.35;;
86047;SDS011;76643;42.822;23.352;2024-03-25T11:22:48;3.92;;;2.55;;
86047;SDS011;76643;42.822;23.352;2024-03-25T11:25:15;3.33;;;2.25;;
86047;SDS011;76643;42.822;23.352;2024-03-25T11:27:42;3.63;;;2.03;;
86047;SDS011;76643;42.822;23.352;2024-03-25T11:30:12;6.97;;;4.45;;
86047;SDS011;76643;42.822;23.352;2024-03-25T11:35:16;7.35;;;4.10;;
86047;SDS011;76643;42.822;23.352;2024-03-25T11:37:42;5.60;;;3.97;;
86047;SDS011;76643;42.822;23.352;2024-03-25T11:40:08;4.68;;;3.38;;
86047;SDS011;76643;42.822;23.352;2024-03-25T11:42:40;6.95;;;4.05;;
86047;SDS011;76643;42.822;23.352;2024-03-25T11:45:10;5.10;;;3.80;;
86047;SDS011;76643;42.822;23.352;2024-03-25T11:47:46;5.00;;;3.80;;
86047;SDS011;76643;42.822;23.352;2024-03-25T11:50:17;5.72;;;4.43;;
86047;SDS011;76643;42.822;23.352;2024-03-25T11:52:44;4.28;;;3.28;;
86047;SDS011;76643;42.822;23.352;2024-03-25T11:55:09;6.43;;;2.95;;
86047;SDS011;76643;42.822;23.352;2024-03-25T11:57:37;4.85;;;3.25;;
86047;SDS011;76643;42.822;23.352;2024-03-25T12:00:03;4.10;;;3.70;;
86047;SDS011;76643;42.822;23.352;2024-03-25T12:02:35;4.05;;;3.22;;
86047;SDS011;76643;42.822;23.352;2024-03-25T12:05:02;3.40;;;2.33;;
86047;SDS011;76643;42.822;23.352;2024-03-25T12:07:28;3.65;;;2.50;;
86047;SDS011;76643;42.822;23.352;2024-03-25T12:09:54;3.40;;;2.83;;
86047;SDS011;76643;42.822;23.352;2024-03-25T12:12:38;4.35;;;3.30;;
86047;SDS011;76643;42.822;23.352;2024-03-25T12:15:08;3.70;;;2.75;;
86047;SDS011;76643;42.822;23.352;2024-03-25T12:17:34;3.85;;;3.33;;
86047;SDS011;76643;42.822;23.352;2024-03-25T12:20:03;3.40;;;2.33;;
86047;SDS011;76643;42.822;23.352;2024-03-25T12:22:31;3.65;;;2.65;;
86047;SDS011;76643;42.822;23.352;2024-03-25T12:25:00;5.10;;;2.47;;
86047;SDS011;76643;42.822;23.352;2024-03-25T12:27:28;3.78;;;2.17;;
86047;SDS011;76643;42.822;23.352;2024-03-25T12:30:27;4.45;;;3.08;;
86047;SDS011;76643;42.822;23.352;2024-03-25T12:32:45;4.38;;;2.78;;
86047;SDS011;76643;42.822;23.352;2024-03-25T12:35:14;49.78;;;19.95;;
86047;SDS011;76643;42.822;23.352;2024-03-25T12:37:44;11.73;;;5.20;;
86047;SDS011;76643;42.822;23.352;2024-03-25T12:40:12;5.63;;;3.85;;
86047;SDS011;76643;42.822;23.352;2024-03-25T12:42:51;4.18;;;2.63;;
86047;SDS011;76643;42.822;23.352;2024-03-25T12:45:17;3.08;;;2.10;;
86047;SDS011;76643;42.822;23.352;2024-03-25T12:47:44;7.85;;;3.60;;
86047;SDS011;76643;42.822;23.352;2024-03-25T12:50:09;8.52;;;5.38;;
86047;SDS011;76643;42.822;23.352;2024-03-25T12:52:34;3.42;;;2.50;;
86047;SDS011;76643;42.822;23.352;2024-03-25T12:55:01;3.13;;;2.20;;
86047;SDS011;76643;42.822;23.352;2024-03-25T12:57:27;3.38;;;2.25;;
86047;SDS011;76643;42.822;23.352;2024-03-25T12:59:52;2.25;;;1.63;;
86047;SDS011;76643;42.822;23.352;2024-03-25T13:02:17;3.33;;;2.25;;
86047;SDS011;76643;42.822;23.352;2024-03-25T13:04:44;4.30;;;2.28;;
86047;SDS011;76643;42.822;23.352;2024-03-25T13:07:09;3.88;;;2.45;;
86047;SDS011;76643;42.822;23.352;2024-03-25T13:09:35;4.93;;;3.78;;
86047;SDS011;76643;42.822;23.352;2024-03-25T13:12:01;9.55;;;5.82;;
86047;SDS011;76643;42.822;23.352;2024-03-25T13:14:27;11.50;;;6.68;;
86047;SDS011;76643;42.822;23.352;2024-03-25T13:16:52;7.13;;;4.88;;
86047;SDS011;76643;42.822;23.352;2024-03-25T13:19:18;3.35;;;2.67;;
86047;SDS011;76643;42.822;23.352;2024-03-25T13:21:43;6.07;;;3.80;;
86047;SDS011;76643;42.822;23.352;2024-03-25T13:24:09;3.90;;;2.88;;
86047;SDS011;76643;42.822;23.352;2024-03-25T13:26:34;8.75;;;3.90;;
86047;SDS011;76643;42.822;23.352;2024-03-25T13:29:00;5.43;;;2.50;;
86047;SDS011;76643;42.822;23.352;2024-03-25T13:31:25;2.05;;;1.52;;
86047;SDS011;76643;42.822;23.352;2024-03-25T13:33:51;7.65;;;3.40;;
86047;SDS011;76643;42.822;23.352;2024-03-25T13:36:17;5.60;;;2.95;;
86047;SDS011;76643;42.822;23.352;2024-03-25T13:38:43;7.10;;;4.10;;
86047;SDS011;76643;42.822;23.352;2024-03-25T13:41:09;4.18;;;2.58;;
86047;SDS011;76643;42.822;23.352;2024-03-25T13:43:34;6.53;;;3.80;;
86047;SDS011;76643;42.822;23.352;2024-03-25T13:46:00;5.22;;;3.50;;
86047;SDS011;76643;42.822;23.352;2024-03-25T13:48:25;3.72;;;2.28;;
86047;SDS011;76643;42.822;23.352;2024-03-25T13:50:54;2.97;;;2.15;;
86047;SDS011;76643;42.822;23.352;2024-03-25T13:53:19;2.83;;;2.15;;
86047;SDS011;76643;42.822;23.352;2024-03-25T13:55:45;2.85;;;2.25;;
86047;SDS011;76643;42.822;23.352;2024-03-25T13:58:11;7.13;;;4.57;;
86047;SDS011;76643;42.822;23.352;2024-03-25T14:00:37;4.05;;;2.63;;
86047;SDS011;76643;42.822;23.352;2024-03-25T14:03:03;3.80;;;2.95;;
86047;SDS011;76643;42.822;23.352;2024-03-25T14:05:28;4.28;;;2.63;;
86047;SDS011;76643;42.822;23.352;2024-03-25T14:07:54;3.55;;;2.42;;
86047;SDS011;76643;42.822;23.352;2024-03-25T14:10:20;4.85;;;3.38;;
86047;SDS011;76643;42.822;23.352;2024-03-25T14:12:46;2.80;;;1.58;;
86047;SDS011;76643;42.822;23.352;2024-03-25T14:15:12;3.47;;;2.38;;
86047;SDS011;76643;42.822;23.352;2024-03-25T14:17:37;4.40;;;2.45;;
86047;SDS011;76643;42.822;23.352;2024-03-25T14:20:03;2.95;;;2.22;;
86047;SDS011;76643;42.822;23.352;2024-03-25T14:22:31;3.08;;;2.60;;
86047;SDS011;76643;42.822;23.352;2024-03-25T14:24:57;4.32;;;3.50;;
86047;SDS011;76643;42.822;23.352;2024-03-25T14:27:26;7.00;;;4.95;;
86047;SDS011;76643;42.822;23.352;2024-03-25T14:29:52;4.32;;;2.60;;
86047;SDS011;76643;42.822;23.352;2024-03-25T14:32:20;6.82;;;3.72;;
86047;SDS011;76643;42.822;23.352;2024-03-25T14:34:47;5.70;;;3.67;;